Dudley, United Kingdom
Current Conditions -  °F | °C
As of 4:20 PM on Wednesday 26 Nov 2014 (Local Time) from EGBB Reporting Station
Haze Haze  
Wind Chill: 42°   Ceiling: 200
Heat Index: 45°   Visibility: 1.1mi
Dew Point: 45°   Wind: 5mph
Humidity: 100%   Direction: 20°NNE
Pressure: 29.8"   Gusts: NA
Location:  52.51°N, 2.09°W
Report Text: EGBB 261620Z 02004KT 1900 BR OVC002 07/07 Q1009
Loading
Personal Weather Stations






























Interactive Weather Map New forecast layout! Learn more

10-Day Weather Forecast

Advertisements
Track Severe Weather on mobile